sensor_id;sensor_type;location;lat;lon;timestamp;pressure;altitude;pressure_sealevel;temperature;humidity
45255;BME280;30989;52.078;21.014;2023-05-31T00:01:58;167238.94;;;13.27;57.29
45255;BME280;30989;52.078;21.014;2023-05-31T00:04:24;167225.53;;;13.21;57.53
45255;BME280;30989;52.078;21.014;2023-05-31T00:06:49;167224.19;;;13.21;57.42
45255;BME280;30989;52.078;21.014;2023-05-31T00:09:15;167216.13;;;13.18;58.01
45255;BME280;30989;52.078;21.014;2023-05-31T00:11:40;167206.69;;;13.14;58.10
45255;BME280;30989;52.078;21.014;2023-05-31T00:14:06;167201.31;;;13.12;58.11
45255;BME280;30989;52.078;21.014;2023-05-31T00:16:31;167190.59;;;13.08;58.07
45255;BME280;30989;52.078;21.014;2023-05-31T00:18:56;167178.53;;;13.04;57.89
45255;BME280;30989;52.078;21.014;2023-05-31T00:21:23;167170.47;;;13.01;58.40
45255;BME280;30989;52.078;21.014;2023-05-31T00:23:48;167166.44;;;12.99;58.32
45255;BME280;30989;52.078;21.014;2023-05-31T00:26:14;167158.41;;;12.96;58.42
45255;BME280;30989;52.078;21.014;2023-05-31T00:28:41;167142.31;;;12.90;58.57
45255;BME280;30989;52.078;21.014;2023-05-31T00:31:06;167135.59;;;12.87;58.83
45255;BME280;30989;52.078;21.014;2023-05-31T00:33:32;167126.22;;;12.84;59.21
45255;BME280;30989;52.078;21.014;2023-05-31T00:35:57;167107.44;;;12.77;59.45
45255;BME280;30989;52.078;21.014;2023-05-31T00:38:22;167096.72;;;12.73;59.58
45255;BME280;30989;52.078;21.014;2023-05-31T00:40:48;167087.31;;;12.69;59.27
45255;BME280;30989;52.078;21.014;2023-05-31T00:43:13;167083.28;;;12.68;59.77
45255;BME280;30989;52.078;21.014;2023-05-31T00:45:39;167067.19;;;12.62;59.92
45255;BME280;30989;52.078;21.014;2023-05-31T00:48:05;167053.78;;;12.56;59.69
45255;BME280;30989;52.078;21.014;2023-05-31T00:50:31;167053.78;;;12.56;59.84
45255;BME280;30989;52.078;21.014;2023-05-31T00:52:57;167040.38;;;12.51;60.00
45255;BME280;30989;52.078;21.014;2023-05-31T00:55:26;167029.66;;;12.47;60.50
45255;BME280;30989;52.078;21.014;2023-05-31T00:57:52;167022.94;;;12.45;60.72
45255;BME280;30989;52.078;21.014;2023-05-31T01:00:18;167002.84;;;12.37;60.93
45255;BME280;30989;52.078;21.014;2023-05-31T01:02:43;166996.13;;;12.35;61.11
45255;BME280;30989;52.078;21.014;2023-05-31T01:05:09;166988.09;;;12.32;60.73
45255;BME280;30989;52.078;21.014;2023-05-31T01:07:35;166973.34;;;12.26;61.71
45255;BME280;30989;52.078;21.014;2023-05-31T01:10:02;166965.31;;;12.23;61.18
45255;BME280;30989;52.078;21.014;2023-05-31T01:15:04;166942.50;;;12.14;62.02
45255;BME280;30989;52.078;21.014;2023-05-31T01:20:28;166914.34;;;12.04;61.93
45255;BME280;30989;52.078;21.014;2023-05-31T01:28:26;166882.19;;;11.91;62.40
45255;BME280;30989;52.078;21.014;2023-05-31T01:30:53;166871.47;;;11.87;62.70
45255;BME280;30989;52.078;21.014;2023-05-31T01:33:19;166863.41;;;11.84;62.40
45255;BME280;30989;52.078;21.014;2023-05-31T01:35:45;166850.00;;;11.79;63.26
45255;BME280;30989;52.078;21.014;2023-05-31T01:38:11;166827.19;;;11.71;63.09
45255;BME280;30989;52.078;21.014;2023-05-31T01:40:37;166817.78;;;11.67;63.05
45255;BME280;30989;52.078;21.014;2023-05-31T01:43:05;166801.72;;;11.61;63.50
45255;BME280;30989;52.078;21.014;2023-05-31T01:45:32;166781.59;;;11.53;63.69
45255;BME280;30989;52.078;21.014;2023-05-31T01:48:03;166777.59;;;11.52;63.93
45255;BME280;30989;52.078;21.014;2023-05-31T01:50:30;166764.19;;;11.47;64.65
45255;BME280;30989;52.078;21.014;2023-05-31T01:52:56;166741.41;;;11.38;64.37
45255;BME280;30989;52.078;21.014;2023-05-31T01:55:22;166737.38;;;11.37;63.71
45255;BME280;30989;52.078;21.014;2023-05-31T01:57:49;166717.28;;;11.29;64.60
45255;BME280;30989;52.078;21.014;2023-05-31T02:00:17;166702.56;;;11.23;64.77
45255;BME280;30989;52.078;21.014;2023-05-31T02:02:44;166698.53;;;11.22;64.66
45255;BME280;30989;52.078;21.014;2023-05-31T02:05:11;166683.78;;;11.16;64.48
45255;BME280;30989;52.078;21.014;2023-05-31T02:07:42;166678.44;;;11.14;64.87
45255;BME280;30989;52.078;21.014;2023-05-31T02:10:10;166657.00;;;11.06;65.39
45255;BME280;30989;52.078;21.014;2023-05-31T02:12:38;166659.66;;;11.07;64.93
45255;BME280;30989;52.078;21.014;2023-05-31T02:15:04;166646.28;;;11.02;64.88
45255;BME280;30989;52.078;21.014;2023-05-31T02:17:37;166643.59;;;11.01;65.66
45255;BME280;30989;52.078;21.014;2023-05-31T02:20:08;166654.31;;;11.05;64.80
45255;BME280;30989;52.078;21.014;2023-05-31T02:22:34;166651.63;;;11.04;64.86
45255;BME280;30989;52.078;21.014;2023-05-31T02:24:59;166643.59;;;11.01;65.56
45255;BME280;30989;52.078;21.014;2023-05-31T02:27:25;166644.94;;;11.02;65.23
45255;BME280;30989;52.078;21.014;2023-05-31T02:29:50;166640.91;;;11.00;65.93
45255;BME280;30989;52.078;21.014;2023-05-31T02:32:16;166632.88;;;10.97;65.69
45255;BME280;30989;52.078;21.014;2023-05-31T02:34:42;166628.88;;;10.95;65.92
45255;BME280;30989;52.078;21.014;2023-05-31T02:37:07;166618.16;;;10.91;65.56
45255;BME280;30989;52.078;21.014;2023-05-31T02:39:34;166616.81;;;10.91;66.32
45255;BME280;30989;52.078;21.014;2023-05-31T02:41:59;166612.78;;;10.89;66.82
45255;BME280;30989;52.078;21.014;2023-05-31T02:44:25;166602.06;;;10.85;66.27
45255;BME280;30989;52.078;21.014;2023-05-31T02:46:50;166599.38;;;10.84;66.50
45255;BME280;30989;52.078;21.014;2023-05-31T02:49:16;166598.03;;;10.84;66.49
45255;BME280;30989;52.078;21.014;2023-05-31T02:51:41;166595.38;;;10.83;66.70
45255;BME280;30989;52.078;21.014;2023-05-31T02:54:25;166595.38;;;10.83;67.06
45255;BME280;30989;52.078;21.014;2023-05-31T02:56:51;166595.38;;;10.83;66.34
45255;BME280;30989;52.078;21.014;2023-05-31T02:59:19;166590.00;;;10.81;66.61
45255;BME280;30989;52.078;21.014;2023-05-31T03:01:54;166584.66;;;10.79;66.76
45255;BME280;30989;52.078;21.014;2023-05-31T03:04:21;166575.28;;;10.75;67.00
45255;BME280;30989;52.078;21.014;2023-05-31T03:06:48;166595.38;;;10.83;66.97
45255;BME280;30989;52.078;21.014;2023-05-31T03:09:14;166599.38;;;10.84;67.04
45255;BME280;30989;52.078;21.014;2023-05-31T03:11:44;166604.75;;;10.86;67.03
45255;BME280;30989;52.078;21.014;2023-05-31T03:14:10;166600.72;;;10.85;67.63
45255;BME280;30989;52.078;21.014;2023-05-31T03:16:44;166603.41;;;10.86;67.00
45255;BME280;30989;52.078;21.014;2023-05-31T03:19:11;166618.16;;;10.91;67.04
45255;BME280;30989;52.078;21.014;2023-05-31T03:21:41;166611.44;;;10.89;67.52
45255;BME280;30989;52.078;21.014;2023-05-31T03:24:07;166624.84;;;10.94;67.80
45255;BME280;30989;52.078;21.014;2023-05-31T03:26:32;166636.91;;;10.98;67.40
45255;BME280;30989;52.078;21.014;2023-05-31T03:28:58;166630.19;;;10.96;67.62
45255;BME280;30989;52.078;21.014;2023-05-31T03:31:24;166643.59;;;11.01;67.63
45255;BME280;30989;52.078;21.014;2023-05-31T03:33:50;166640.91;;;11.00;68.16
45255;BME280;30989;52.078;21.014;2023-05-31T03:36:17;166640.91;;;11.00;68.41
45255;BME280;30989;52.078;21.014;2023-05-31T03:38:43;166651.63;;;11.04;68.07
45255;BME280;30989;52.078;21.014;2023-05-31T03:41:08;166638.25;;;10.99;68.26
45255;BME280;30989;52.078;21.014;2023-05-31T03:43:35;166657.00;;;11.06;68.18
45255;BME280;30989;52.078;21.014;2023-05-31T03:46:01;166673.06;;;11.12;68.20
45255;BME280;30989;52.078;21.014;2023-05-31T03:48:27;166685.13;;;11.17;67.97
45255;BME280;30989;52.078;21.014;2023-05-31T03:50:53;166706.56;;;11.25;68.31
45255;BME280;30989;52.078;21.014;2023-05-31T03:53:18;166711.94;;;11.27;68.06
45255;BME280;30989;52.078;21.014;2023-05-31T03:55:44;166732.03;;;11.35;68.87
45255;BME280;30989;52.078;21.014;2023-05-31T03:58:09;166756.16;;;11.44;68.38
45255;BME280;30989;52.078;21.014;2023-05-31T04:00:38;166776.25;;;11.51;68.02
45255;BME280;30989;52.078;21.014;2023-05-31T04:03:04;166785.63;;;11.55;67.96
45255;BME280;30989;52.078;21.014;2023-05-31T04:05:31;166793.66;;;11.58;67.92
45255;BME280;30989;52.078;21.014;2023-05-31T04:07:57;166804.38;;;11.62;67.96
45255;BME280;30989;52.078;21.014;2023-05-31T04:10:24;166821.81;;;11.69;68.52
45255;BME280;30989;52.078;21.014;2023-05-31T04:12:50;166837.91;;;11.75;67.99
45255;BME280;30989;52.078;21.014;2023-05-31T04:15:16;166862.06;;;11.84;68.02
45255;BME280;30989;52.078;21.014;2023-05-31T04:17:41;166866.09;;;11.85;67.93
45255;BME280;30989;52.078;21.014;2023-05-31T04:20:07;166909.00;;;12.02;68.28
45255;BME280;30989;52.078;21.014;2023-05-31T04:22:34;166921.06;;;12.06;67.32
45255;BME280;30989;52.078;21.014;2023-05-31T04:25:01;166937.16;;;12.12;67.11
45255;BME280;30989;52.078;21.014;2023-05-31T04:27:32;166957.25;;;12.20;67.28
45255;BME280;30989;52.078;21.014;2023-05-31T04:29:59;166973.34;;;12.26;66.94
45255;BME280;30989;52.078;21.014;2023-05-31T04:32:26;166985.41;;;12.31;66.79
45255;BME280;30989;52.078;21.014;2023-05-31T04:34:53;166982.72;;;12.30;65.72
45255;BME280;30989;52.078;21.014;2023-05-31T04:37:26;166986.75;;;12.31;65.69
45255;BME280;30989;52.078;21.014;2023-05-31T04:39:54;167005.53;;;12.38;65.12
45255;BME280;30989;52.078;21.014;2023-05-31T04:42:20;167017.59;;;12.43;65.18
45255;BME280;30989;52.078;21.014;2023-05-31T04:44:45;167043.06;;;12.52;65.72
45255;BME280;30989;52.078;21.014;2023-05-31T04:47:10;167059.16;;;12.58;65.57
45255;BME280;30989;52.078;21.014;2023-05-31T04:49:36;167084.63;;;12.68;64.58
45255;BME280;30989;52.078;21.014;2023-05-31T04:52:01;167094.03;;;12.72;64.41
45255;BME280;30989;52.078;21.014;2023-05-31T04:54:27;167104.75;;;12.76;64.00
45255;BME280;30989;52.078;21.014;2023-05-31T04:56:52;167112.81;;;12.79;63.92
45255;BME280;30989;52.078;21.014;2023-05-31T04:59:18;167124.88;;;12.83;63.15
45255;BME280;30989;52.078;21.014;2023-05-31T05:01:44;167120.84;;;12.82;63.04
45255;BME280;30989;52.078;21.014;2023-05-31T05:04:14;167111.47;;;12.78;63.34
45255;BME280;30989;52.078;21.014;2023-05-31T05:06:39;167131.56;;;12.86;62.46
45255;BME280;30989;52.078;21.014;2023-05-31T05:09:07;167150.34;;;12.93;62.79
45255;BME280;30989;52.078;21.014;2023-05-31T05:11:33;167177.19;;;13.03;62.20
45255;BME280;30989;52.078;21.014;2023-05-31T05:13:58;167201.31;;;13.12;61.94
45255;BME280;30989;52.078;21.014;2023-05-31T05:16:26;167216.13;;;13.18;61.75
45255;BME280;30989;52.078;21.014;2023-05-31T05:18:51;167228.22;;;13.22;61.76
45255;BME280;30989;52.078;21.014;2023-05-31T05:21:17;167238.94;;;13.27;62.08
45255;BME280;30989;52.078;21.014;2023-05-31T05:23:43;167261.75;;;13.35;61.92
45255;BME280;30989;52.078;21.014;2023-05-31T05:26:09;167279.19;;;13.42;60.82
45255;BME280;30989;52.078;21.014;2023-05-31T05:28:35;167277.84;;;13.41;60.59
45255;BME280;30989;52.078;21.014;2023-05-31T05:31:02;167293.94;;;13.47;60.75
45255;BME280;30989;52.078;21.014;2023-05-31T05:33:31;167318.09;;;13.57;60.29
45255;BME280;30989;52.078;21.014;2023-05-31T05:35:57;167334.19;;;13.63;60.09
45255;BME280;30989;52.078;21.014;2023-05-31T05:38:23;167351.66;;;13.69;60.08
45255;BME280;30989;52.078;21.014;2023-05-31T05:40:48;167367.75;;;13.75;59.00
45255;BME280;30989;52.078;21.014;2023-05-31T05:43:14;167371.78;;;13.77;58.83
45255;BME280;30989;52.078;21.014;2023-05-31T05:45:55;167383.84;;;13.81;58.97
45255;BME280;30989;52.078;21.014;2023-05-31T05:48:21;167414.72;;;13.93;58.96
45255;BME280;30989;52.078;21.014;2023-05-31T05:50:46;167436.19;;;14.01;58.46
45255;BME280;30989;52.078;21.014;2023-05-31T05:53:13;167461.69;;;14.11;57.95
45255;BME280;30989;52.078;21.014;2023-05-31T05:55:38;167471.09;;;14.14;58.19
45255;BME280;30989;52.078;21.014;2023-05-31T05:58:04;167473.78;;;14.15;58.11
45255;BME280;30989;52.078;21.014;2023-05-31T06:00:55;167511.38;;;14.30;58.06
45255;BME280;30989;52.078;21.014;2023-05-31T06:03:21;167522.09;;;14.34;57.88
45255;BME280;30989;52.078;21.014;2023-05-31T06:05:49;167536.88;;;14.39;57.89
45255;BME280;30989;52.078;21.014;2023-05-31T06:08:15;167565.13;;;14.50;55.96
45255;BME280;30989;52.078;21.014;2023-05-31T06:10:40;167587.94;;;14.59;56.06
45255;BME280;30989;52.078;21.014;2023-05-31T06:13:07;167609.41;;;14.67;55.26
45255;BME280;30989;52.078;21.014;2023-05-31T06:15:33;167634.94;;;14.76;55.53
45255;BME280;30989;52.078;21.014;2023-05-31T06:17:59;167648.34;;;14.81;55.16
45255;BME280;30989;52.078;21.014;2023-05-31T06:20:25;167675.22;;;14.92;55.09
45255;BME280;30989;52.078;21.014;2023-05-31T06:22:52;167707.44;;;15.04;55.19
45255;BME280;30989;52.078;21.014;2023-05-31T06:25:18;167735.66;;;15.14;54.57
45255;BME280;30989;52.078;21.014;2023-05-31T06:27:45;167749.09;;;15.20;53.21
45255;BME280;30989;52.078;21.014;2023-05-31T06:30:12;167754.47;;;15.22;52.17
45255;BME280;30989;52.078;21.014;2023-05-31T06:32:43;167779.97;;;15.31;51.92
45255;BME280;30989;52.078;21.014;2023-05-31T06:35:09;167804.16;;;15.40;51.65
45255;BME280;30989;52.078;21.014;2023-05-31T06:37:34;167820.28;;;15.46;50.47
45255;BME280;30989;52.078;21.014;2023-05-31T06:39:59;167822.97;;;15.47;49.96
45255;BME280;30989;52.078;21.014;2023-05-31T06:42:25;167822.97;;;15.47;50.60
45255;BME280;30989;52.078;21.014;2023-05-31T06:44:57;167828.34;;;15.49;50.38
45255;BME280;30989;52.078;21.014;2023-05-31T06:47:43;167839.06;;;15.54;49.06
45255;BME280;30989;52.078;21.014;2023-05-31T06:50:14;167853.91;;;15.59;48.74
45255;BME280;30989;52.078;21.014;2023-05-31T06:52:46;167872.78;;;15.66;49.08
45255;BME280;30989;52.078;21.014;2023-05-31T06:55:34;167895.59;;;15.75;48.13
45255;BME280;30989;52.078;21.014;2023-05-31T06:58:00;167915.75;;;15.83;48.70
45255;BME280;30989;52.078;21.014;2023-05-31T07:00:28;167931.88;;;15.89;49.14
45255;BME280;30989;52.078;21.014;2023-05-31T07:02:54;167939.94;;;15.92;49.89
45255;BME280;30989;52.078;21.014;2023-05-31T07:05:20;167980.25;;;16.07;49.15
45255;BME280;30989;52.078;21.014;2023-05-31T07:07:47;168001.75;;;16.15;47.56
45255;BME280;30989;52.078;21.014;2023-05-31T07:10:13;168015.19;;;16.20;47.63
45255;BME280;30989;52.078;21.014;2023-05-31T07:12:38;168025.94;;;16.24;45.48
45255;BME280;30989;52.078;21.014;2023-05-31T07:15:05;168031.31;;;16.26;46.32
45255;BME280;30989;52.078;21.014;2023-05-31T07:17:30;168056.88;;;16.36;46.91
45255;BME280;30989;52.078;21.014;2023-05-31T07:19:56;168082.41;;;16.46;46.82
45255;BME280;30989;52.078;21.014;2023-05-31T07:22:22;168106.59;;;16.55;45.01
45255;BME280;30989;52.078;21.014;2023-05-31T07:24:47;168124.06;;;16.61;44.07
45255;BME280;30989;52.078;21.014;2023-05-31T07:27:13;168132.13;;;16.64;42.56
45255;BME280;30989;52.078;21.014;2023-05-31T07:29:39;168137.56;;;16.66;43.52
45255;BME280;30989;52.078;21.014;2023-05-31T07:32:05;168136.22;;;16.66;39.72
45255;BME280;30989;52.078;21.014;2023-05-31T07:34:31;168144.28;;;16.69;40.40
45255;BME280;30989;52.078;21.014;2023-05-31T07:36:56;168159.06;;;16.74;38.93
45255;BME280;30989;52.078;21.014;2023-05-31T07:39:22;168168.47;;;16.78;40.90
45255;BME280;30989;52.078;21.014;2023-05-31T07:41:48;168203.44;;;16.91;40.98
45255;BME280;30989;52.078;21.014;2023-05-31T07:44:13;168237.03;;;17.04;40.33
45255;BME280;30989;52.078;21.014;2023-05-31T07:46:43;168254.53;;;17.11;40.25
45255;BME280;30989;52.078;21.014;2023-05-31T07:49:09;168273.34;;;17.18;38.62
45255;BME280;30989;52.078;21.014;2023-05-31T07:51:35;168289.47;;;17.24;39.18
45255;BME280;30989;52.078;21.014;2023-05-31T07:54:01;168286.78;;;17.23;38.15
45255;BME280;30989;52.078;21.014;2023-05-31T07:56:28;168286.78;;;17.23;37.74
45255;BME280;30989;52.078;21.014;2023-05-31T07:58:53;168304.28;;;17.29;36.56
45255;BME280;30989;52.078;21.014;2023-05-31T08:01:19;168317.72;;;17.34;37.52
45255;BME280;30989;52.078;21.014;2023-05-31T08:03:44;168339.22;;;17.43;36.12
45255;BME280;30989;52.078;21.014;2023-05-31T08:06:10;168336.53;;;17.42;35.58
45255;BME280;30989;52.078;21.014;2023-05-31T08:08:35;168341.94;;;17.44;37.02
45255;BME280;30989;52.078;21.014;2023-05-31T08:11:01;168364.78;;;17.52;36.68
45255;BME280;30989;52.078;21.014;2023-05-31T08:13:29;168384.97;;;17.60;36.24
45255;BME280;30989;52.078;21.014;2023-05-31T08:15:55;168397.06;;;17.64;34.31
45255;BME280;30989;52.078;21.014;2023-05-31T08:18:21;168397.06;;;17.64;34.18
45255;BME280;30989;52.078;21.014;2023-05-31T08:20:47;168407.88;;;17.68;33.28
45255;BME280;30989;52.078;21.014;2023-05-31T08:23:19;168421.34;;;17.74;34.73
45255;BME280;30989;52.078;21.014;2023-05-31T08:25:46;168429.41;;;17.77;34.45
45255;BME280;30989;52.078;21.014;2023-05-31T08:28:11;168434.78;;;17.79;33.72
45255;BME280;30989;52.078;21.014;2023-05-31T08:30:36;168453.63;;;17.86;34.03
45255;BME280;30989;52.078;21.014;2023-05-31T08:33:02;168456.31;;;17.87;33.60
45255;BME280;30989;52.078;21.014;2023-05-31T08:35:27;168481.88;;;17.96;33.54
45255;BME280;30989;52.078;21.014;2023-05-31T08:37:53;168511.47;;;18.08;34.42
45255;BME280;30989;52.078;21.014;2023-05-31T08:40:20;168527.59;;;18.14;33.70
45255;BME280;30989;52.078;21.014;2023-05-31T08:45:15;168546.44;;;18.21;34.28
45255;BME280;30989;52.078;21.014;2023-05-31T08:47:51;168557.19;;;18.25;35.05
45255;BME280;30989;52.078;21.014;2023-05-31T08:50:18;168572.00;;;18.30;33.47
45255;BME280;30989;52.078;21.014;2023-05-31T08:52:45;168577.38;;;18.32;34.59
45255;BME280;30989;52.078;21.014;2023-05-31T08:55:11;168608.31;;;18.44;32.52
45255;BME280;30989;52.078;21.014;2023-05-31T08:57:37;168617.75;;;18.48;33.24
45255;BME280;30989;52.078;21.014;2023-05-31T09:00:05;168641.97;;;18.57;32.39
45255;BME280;30989;52.078;21.014;2023-05-31T09:02:37;168658.16;;;18.63;32.73
45255;BME280;30989;52.078;21.014;2023-05-31T09:05:03;168681.03;;;18.72;32.64
45255;BME280;30989;52.078;21.014;2023-05-31T09:07:30;168706.63;;;18.81;32.68
45255;BME280;30989;52.078;21.014;2023-05-31T09:09:55;168738.91;;;18.93;31.89
45255;BME280;30989;52.078;21.014;2023-05-31T09:12:21;168772.56;;;19.06;32.10
45255;BME280;30989;52.078;21.014;2023-05-31T09:14:47;168783.34;;;19.10;31.47
45255;BME280;30989;52.078;21.014;2023-05-31T09:17:13;168773.91;;;19.07;30.41
45255;BME280;30989;52.078;21.014;2023-05-31T09:19:49;168752.38;;;18.98;30.86
45255;BME280;30989;52.078;21.014;2023-05-31T09:22:15;168760.47;;;19.02;29.97
45255;BME280;30989;52.078;21.014;2023-05-31T09:24:49;168761.81;;;19.02;29.39
45255;BME280;30989;52.078;21.014;2023-05-31T09:27:15;168763.16;;;19.03;30.21
45255;BME280;30989;52.078;21.014;2023-05-31T09:29:42;168782.00;;;19.10;31.28
45255;BME280;30989;52.078;21.014;2023-05-31T09:32:09;168810.25;;;19.20;30.90
45255;BME280;30989;52.078;21.014;2023-05-31T09:34:34;168811.59;;;19.21;30.52
45255;BME280;30989;52.078;21.014;2023-05-31T09:37:00;168835.84;;;19.30;30.00
45255;BME280;30989;52.078;21.014;2023-05-31T09:39:27;168866.81;;;19.42;29.36
45255;BME280;30989;52.078;21.014;2023-05-31T09:41:53;168881.63;;;19.47;28.84
45255;BME280;30989;52.078;21.014;2023-05-31T09:44:18;168904.56;;;19.56;28.55
45255;BME280;30989;52.078;21.014;2023-05-31T09:46:47;168930.13;;;19.66;28.19
45255;BME280;30989;52.078;21.014;2023-05-31T09:49:12;168922.06;;;19.62;27.47
45255;BME280;30989;52.078;21.014;2023-05-31T09:51:38;168922.06;;;19.62;27.56
45255;BME280;30989;52.078;21.014;2023-05-31T09:54:13;168943.59;;;19.71;27.40
45255;BME280;30989;52.078;21.014;2023-05-31T09:56:40;168944.94;;;19.71;27.74
45255;BME280;30989;52.078;21.014;2023-05-31T09:59:10;168959.75;;;19.77;28.15
45255;BME280;30989;52.078;21.014;2023-05-31T10:01:36;168994.75;;;19.90;28.77
45255;BME280;30989;52.078;21.014;2023-05-31T10:04:03;169039.22;;;20.07;28.38
45255;BME280;30989;52.078;21.014;2023-05-31T10:06:30;169068.84;;;20.18;27.84
45255;BME280;30989;52.078;21.014;2023-05-31T10:09:01;169118.69;;;20.37;27.86
45255;BME280;30989;52.078;21.014;2023-05-31T10:11:33;169129.50;;;20.41;27.31
45255;BME280;30989;52.078;21.014;2023-05-31T10:14:02;169145.66;;;20.47;27.94
45255;BME280;30989;52.078;21.014;2023-05-31T10:16:35;169172.59;;;20.57;27.77
45255;BME280;30989;52.078;21.014;2023-05-31T10:19:06;169198.19;;;20.67;28.02
45255;BME280;30989;52.078;21.014;2023-05-31T10:21:33;169242.72;;;20.83;27.46
45255;BME280;30989;52.078;21.014;2023-05-31T10:24:08;169235.97;;;20.81;25.66
45255;BME280;30989;52.078;21.014;2023-05-31T10:26:49;169188.78;;;20.63;26.86
45255;BME280;30989;52.078;21.014;2023-05-31T10:29:23;169171.25;;;20.56;26.49
45255;BME280;30989;52.078;21.014;2023-05-31T10:31:54;169173.94;;;20.57;27.20
45255;BME280;30989;52.078;21.014;2023-05-31T10:34:25;169223.78;;;20.76;25.77
45255;BME280;30989;52.078;21.014;2023-05-31T10:36:54;169268.31;;;20.93;25.38
45255;BME280;30989;52.078;21.014;2023-05-31T10:39:48;169320.88;;;21.13;24.98
45255;BME280;30989;52.078;21.014;2023-05-31T10:45:13;169448.94;;;21.61;25.35
45255;BME280;30989;52.078;21.014;2023-05-31T10:47:49;169537.91;;;21.95;25.00
45255;BME280;30989;52.078;21.014;2023-05-31T10:50:20;169598.63;;;22.17;24.86
45255;BME280;30989;52.078;21.014;2023-05-31T10:52:52;169674.13;;;22.46;24.50
45255;BME280;30989;52.078;21.014;2023-05-31T10:55:40;169728.06;;;22.66;24.24
45255;BME280;30989;52.078;21.014;2023-05-31T10:58:24;169831.97;;;23.05;25.21
45255;BME280;30989;52.078;21.014;2023-05-31T11:00:52;169949.34;;;23.50;23.60
45255;BME280;30989;52.078;21.014;2023-05-31T11:03:21;169987.16;;;23.64;23.03
45255;BME280;30989;52.078;21.014;2023-05-31T11:05:58;169977.72;;;23.60;22.89
45255;BME280;30989;52.078;21.014;2023-05-31T11:08:29;169966.94;;;23.56;23.15
45255;BME280;30989;52.078;21.014;2023-05-31T11:16:21;170073.53;;;23.96;23.07
45255;BME280;30989;52.078;21.014;2023-05-31T11:18:46;170147.75;;;24.24;22.93
45255;BME280;30989;52.078;21.014;2023-05-31T11:21:47;170170.75;;;24.33;22.38
45255;BME280;30989;52.078;21.014;2023-05-31T11:27:18;170209.88;;;24.48;20.64
45255;BME280;30989;52.078;21.014;2023-05-31T11:32:13;170300.31;;;24.82;21.81
45255;BME280;30989;52.078;21.014;2023-05-31T11:34:54;170404.34;;;25.21;21.24
45255;BME280;30989;52.078;21.014;2023-05-31T11:37:22;170570.50;;;25.83;21.16
45255;BME280;30989;52.078;21.014;2023-05-31T11:39:48;170670.50;;;26.21;21.30
45255;BME280;30989;52.078;21.014;2023-05-31T11:42:14;170725.94;;;26.42;19.38
45255;BME280;30989;52.078;21.014;2023-05-31T11:44:44;170724.59;;;26.41;20.32
45255;BME280;30989;52.078;21.014;2023-05-31T11:47:16;170747.56;;;26.50;20.11
45255;BME280;30989;52.078;21.014;2023-05-31T11:49:43;170798.91;;;26.69;18.74
45255;BME280;30989;52.078;21.014;2023-05-31T11:52:08;170898.94;;;27.07;20.08
45255;BME280;30989;52.078;21.014;2023-05-31T11:54:34;170994.91;;;27.43;19.96
45255;BME280;30989;52.078;21.014;2023-05-31T11:57:05;171078.75;;;27.74;19.86
45255;BME280;30989;52.078;21.014;2023-05-31T11:59:35;171222.13;;;28.28;20.10
45255;BME280;30989;52.078;21.014;2023-05-31T12:02:02;171316.78;;;28.64;19.63
45255;BME280;30989;52.078;21.014;2023-05-31T12:04:38;171350.59;;;28.76;18.71
45255;BME280;30989;52.078;21.014;2023-05-31T12:07:06;171353.28;;;28.77;18.64
45255;BME280;30989;52.078;21.014;2023-05-31T12:09:35;171328.94;;;28.68;18.46
45255;BME280;30989;52.078;21.014;2023-05-31T12:12:01;171270.78;;;28.46;19.12
45255;BME280;30989;52.078;21.014;2023-05-31T12:14:33;171178.81;;;28.12;19.63
45255;BME280;30989;52.078;21.014;2023-05-31T12:17:05;171162.56;;;28.06;19.84
45255;BME280;30989;52.078;21.014;2023-05-31T12:19:31;171208.59;;;28.23;19.64
45255;BME280;30989;52.078;21.014;2023-05-31T12:21:57;171230.22;;;28.31;19.08
45255;BME280;30989;52.078;21.014;2023-05-31T12:24:22;171285.69;;;28.52;19.30
45255;BME280;30989;52.078;21.014;2023-05-31T12:26:48;171446.66;;;29.12;20.42
45255;BME280;30989;52.078;21.014;2023-05-31T12:29:15;171596.88;;;29.69;19.11
45255;BME280;30989;52.078;21.014;2023-05-31T12:31:41;171748.47;;;30.26;18.94
45255;BME280;30989;52.078;21.014;2023-05-31T12:34:07;171901.47;;;30.83;18.88
45255;BME280;30989;52.078;21.014;2023-05-31T12:36:47;172019.34;;;31.27;18.16
45255;BME280;30989;52.078;21.014;2023-05-31T12:39:17;172096.53;;;31.56;18.67
45255;BME280;30989;52.078;21.014;2023-05-31T12:41:46;172180.53;;;31.88;16.56
45255;BME280;30989;52.078;21.014;2023-05-31T12:44:13;172175.09;;;31.86;15.53
45255;BME280;30989;52.078;21.014;2023-05-31T12:46:42;172119.53;;;31.65;17.60
45255;BME280;30989;52.078;21.014;2023-05-31T12:51:39;172158.84;;;31.80;17.32
45255;BME280;30989;52.078;21.014;2023-05-31T12:54:13;172256.38;;;32.16;17.44
45255;BME280;30989;52.078;21.014;2023-05-31T12:56:39;172358.00;;;32.54;16.51
45255;BME280;30989;52.078;21.014;2023-05-31T12:59:04;172359.34;;;32.55;17.04
45255;BME280;30989;52.078;21.014;2023-05-31T13:01:30;172318.72;;;32.40;17.11
45255;BME280;30989;52.078;21.014;2023-05-31T13:03:56;172320.06;;;32.40;16.62
45255;BME280;30989;52.078;21.014;2023-05-31T13:06:21;172229.28;;;32.06;16.08
45255;BME280;30989;52.078;21.014;2023-05-31T13:08:46;172101.94;;;31.58;15.47
45255;BME280;30989;52.078;21.014;2023-05-31T13:11:12;172061.31;;;31.43;16.67
45255;BME280;30989;52.078;21.014;2023-05-31T13:13:37;171988.16;;;31.16;15.94